This is the latest recevied weather packets stored in our database for station/object OK1KKY-18. If no packets are shown the sender has not sent any weather packets the latest 10 day(s).
| Time | Temp. | Humidity | Pressure | Rain* | Wind** | Luminosity | Snow |
|---|---|---|---|---|---|---|---|
| 1777754753 | 9.44° C | 53% | 1020.7 hPa | - | - | - | - |
| 1777754153 | 10° C | 52% | 1020.8 hPa | - | - | - | - |
| 1777753553 | 10° C | 51% | 1020.8 hPa | - | - | - | - |
| 1777752952 | 10° C | 52% | 1020.9 hPa | - | - | - | - |
| 1777752353 | 10° C | 50% | 1020.9 hPa | - | - | - | - |
| 1777751753 | 10° C | 50% | 1020.9 hPa | - | - | - | - |
| 1777751153 | 10° C | 51% | 1021 hPa | - | - | - | - |
| 1777750553 | 10° C | 51% | 1020.9 hPa | - | - | - | - |
| 1777749953 | 10° C | 52% | 1020.8 hPa | - | - | - | - |
| 1777749353 | 10.56° C | 49% | 1020.8 hPa | - | - | - | - |
| 1777748753 | 10.56° C | 51% | 1020.8 hPa | - | - | - | - |
| 1777748153 | 10.56° C | 50% | 1020.7 hPa | - | - | - | - |
| 1777747553 | 11.11° C | 50% | 1020.8 hPa | - | - | - | - |
| 1777746953 | 11.11° C | 50% | 1020.8 hPa | - | - | - | - |
| 1777746353 | 11.67° C | 52% | 1020.7 hPa | - | - | - | - |
| 1777745752 | 11.67° C | 49% | 1020.6 hPa | - | - | - | - |
| 1777745153 | 12.22° C | 49% | 1020.6 hPa | - | - | - | - |
| 1777744553 | 12.22° C | 48% | 1020.6 hPa | - | - | - | - |
| 1777743952 | 12.78° C | 46% | 1020.6 hPa | - | - | - | - |
| 1777743355 | 12.78° C | 50% | 1020.6 hPa | - | - | - | - |
| 1777742755 | 13.89° C | 46% | 1020.6 hPa | - | - | - | - |
| 1777742152 | 14.44° C | 45% | 1020.6 hPa | - | - | - | - |
| 1777741557 | 15° C | 43% | 1020.6 hPa | - | - | - | - |
| 1777740957 | 15.56° C | 40% | 1020.6 hPa | - | - | - | - |
| 1777740358 | 16.67° C | 35% | 1020.6 hPa | - | - | - | - |
* Rain since midnight (hover to see other rain measurements)
** Current wind speed in m/s (hover to see current wind gust speed)